Time;durP1;ratioP1;P1;durP2;ratioP2;P2;SDS_P1;SDS_P2;PMS_P1;PMS_P2;Temp;Humidity;BMP_temperature;BMP_pressure;BME280_temperature;BME280_humidity;BME280_pressure;Samples;Min_cycle;Max_cycle;Signal;HPM_P1;HPM_P2
2020/06/26 00:00:19;;;;;;;9.65;8.75;;;;;;;13.01;79.80762;95252.04;;;;
2020/06/26 00:01:22;;;;;;;9.65;8.75;;;;;;;13.01;79.80762;95252.04;;;;
2020/06/26 00:02:23;;;;;;;10.45;9.550001;;;;;;;12.83;80.65332;95246.09;;;;
2020/06/26 00:03:24;;;;;;;10.45;9.550001;;;;;;;12.83;80.65332;95246.09;;;;
2020/06/26 00:04:25;;;;;;;10.45;9.550001;;;;;;;12.83;80.65332;95246.09;;;;
2020/06/26 00:05:25;;;;;;;10.45;9.550001;;;;;;;12.83;80.65332;95246.09;;;;
2020/06/26 00:06:26;;;;;;;10.45;9.550001;;;;;;;12.83;80.65332;95246.09;;;;
2020/06/26 00:07:27;;;;;;;10.45;9.550001;;;;;;;12.83;80.65332;95246.09;;;;
2020/06/26 00:08:27;;;;;;;10.45;9.550001;;;;;;;12.83;80.65332;95246.09;;;;
2020/06/26 00:09:28;;;;;;;10.45;9.550001;;;;;;;12.83;80.65332;95246.09;;;;
2020/06/26 00:10:28;;;;;;;10.45;9.550001;;;;;;;12.83;80.65332;95246.09;;;;
2020/06/26 00:11:29;;;;;;;10.45;9.550001;;;;;;;12.83;80.65332;95246.09;;;;
2020/06/26 00:12:30;;;;;;;10.45;9.550001;;;;;;;12.83;80.65332;95246.09;;;;
2020/06/26 00:13:30;;;;;;;9.6;8.799998;;;;;;;12.72;81.58789;95224.41;;;;
2020/06/26 00:14:31;;;;;;;9.6;8.799998;;;;;;;12.72;81.58789;95224.41;;;;
2020/06/26 00:15:31;;;;;;;9.6;8.799998;;;;;;;12.72;81.58789;95224.41;;;;
2020/06/26 00:16:32;;;;;;;9.6;8.799998;;;;;;;12.72;81.58789;95224.41;;;;
2020/06/26 00:17:32;;;;;;;9.6;8.799998;;;;;;;12.72;81.58789;95224.41;;;;
2020/06/26 00:18:33;;;;;;;9.6;8.799998;;;;;;;12.72;81.58789;95224.41;;;;
2020/06/26 00:19:33;;;;;;;9.6;8.799998;;;;;;;12.72;81.58789;95224.41;;;;
2020/06/26 00:20:34;;;;;;;9.6;8.799998;;;;;;;12.72;81.58789;95224.41;;;;
2020/06/26 00:21:34;;;;;;;9.6;8.799998;;;;;;;12.72;81.58789;95224.41;;;;
2020/06/26 00:22:35;;;;;;;9.6;8.799998;;;;;;;12.72;81.58789;95224.41;;;;
2020/06/26 00:23:36;;;;;;;11.3;10.2;;;;;;;12.58;82.3252;95225.84;;;;
2020/06/26 00:24:36;;;;;;;11.3;10.2;;;;;;;12.58;82.3252;95225.84;;;;
2020/06/26 00:25:37;;;;;;;11.3;10.2;;;;;;;12.58;82.3252;95225.84;;;;
2020/06/26 00:26:38;;;;;;;11.3;10.2;;;;;;;12.58;82.3252;95225.84;;;;
2020/06/26 00:27:39;;;;;;;11.3;10.2;;;;;;;12.58;82.3252;95225.84;;;;
2020/06/26 00:28:41;;;;;;;11.3;10.2;;;;;;;12.58;82.3252;95225.84;;;;
2020/06/26 00:29:42;;;;;;;11.3;10.2;;;;;;;12.58;82.3252;95225.84;;;;
2020/06/26 00:30:42;;;;;;;11.3;10.2;;;;;;;12.58;82.3252;95225.84;;;;
2020/06/26 00:31:43;;;;;;;11.3;10.2;;;;;;;12.58;82.3252;95225.84;;;;
2020/06/26 00:32:43;;;;;;;11.3;10.2;;;;;;;12.58;82.3252;95225.84;;;;
2020/06/26 00:33:45;;;;;;;11.3;10.2;;;;;;;12.58;82.3252;95225.84;;;;
2020/06/26 00:34:46;;;;;;;11.5;10.4;;;;;;;12.52;83.20215;95210.61;;;;
2020/06/26 00:35:46;;;;;;;11.5;10.4;;;;;;;12.52;83.20215;95210.61;;;;
2020/06/26 00:36:52;;;;;;;11.5;10.4;;;;;;;12.52;83.20215;95210.61;;;;
2020/06/26 00:37:53;;;;;;;11.5;10.4;;;;;;;12.52;83.20215;95210.61;;;;
2020/06/26 00:38:53;;;;;;;11.5;10.4;;;;;;;12.52;83.20215;95210.61;;;;
2020/06/26 00:39:54;;;;;;;11.5;10.4;;;;;;;12.52;83.20215;95210.61;;;;
2020/06/26 00:40:54;;;;;;;11.5;10.4;;;;;;;12.52;83.20215;95210.61;;;;
2020/06/26 00:41:55;;;;;;;11.5;10.4;;;;;;;12.52;83.20215;95210.61;;;;
2020/06/26 00:42:55;;;;;;;11.5;10.4;;;;;;;12.52;83.20215;95210.61;;;;
2020/06/26 00:43:56;;;;;;;11.5;10.4;;;;;;;12.52;83.20215;95210.61;;;;
2020/06/26 00:44:56;;;;;;;11.15;10.15;;;;;;;12.39;83.9209;95204.05;;;;
2020/06/26 00:45:56;;;;;;;11.15;10.15;;;;;;;12.39;83.9209;95204.05;;;;
2020/06/26 00:46:57;;;;;;;11.15;10.15;;;;;;;12.39;83.9209;95204.05;;;;
2020/06/26 00:47:57;;;;;;;11.15;10.15;;;;;;;12.39;83.9209;95204.05;;;;
2020/06/26 00:48:58;;;;;;;11.15;10.15;;;;;;;12.39;83.9209;95204.05;;;;
2020/06/26 00:49:59;;;;;;;11.15;10.15;;;;;;;12.39;83.9209;95204.05;;;;
2020/06/26 00:50:59;;;;;;;11.15;10.15;;;;;;;12.39;83.9209;95204.05;;;;
2020/06/26 00:52:00;;;;;;;11.15;10.15;;;;;;;12.39;83.9209;95204.05;;;;
2020/06/26 00:53:00;;;;;;;11.15;10.15;;;;;;;12.39;83.9209;95204.05;;;;
2020/06/26 00:54:01;;;;;;;11.15;10.15;;;;;;;12.39;83.9209;95204.05;;;;
2020/06/26 00:55:01;;;;;;;11.65;10.65;;;;;;;12.35;84.71289;95205.74;;;;
2020/06/26 00:56:05;;;;;;;11.65;10.65;;;;;;;12.35;84.71289;95205.74;;;;
2020/06/26 00:57:05;;;;;;;11.65;10.65;;;;;;;12.35;84.71289;95205.74;;;;
2020/06/26 00:58:06;;;;;;;11.65;10.65;;;;;;;12.35;84.71289;95205.74;;;;
2020/06/26 00:59:07;;;;;;;11.65;10.65;;;;;;;12.35;84.71289;95205.74;;;;
2020/06/26 01:00:08;;;;;;;11.65;10.65;;;;;;;12.35;84.71289;95205.74;;;;
2020/06/26 01:01:16;;;;;;;11.65;10.65;;;;;;;12.35;84.71289;95205.74;;;;
2020/06/26 01:02:18;;;;;;;11.65;10.65;;;;;;;12.35;84.71289;95205.74;;;;
2020/06/26 01:03:21;;;;;;;11.65;10.65;;;;;;;12.35;84.71289;95205.74;;;;
2020/06/26 01:04:22;;;;;;;11.65;10.65;;;;;;;12.35;84.71289;95205.74;;;;
2020/06/26 01:05:26;;;;;;;11.65;10.65;;;;;;;12.35;84.71289;95205.74;;;;
2020/06/26 01:06:29;;;;;;;11.75;10.65;;;;;;;12.29;85.39844;95191.83;;;;
2020/06/26 01:07:30;;;;;;;11.75;10.65;;;;;;;12.29;85.39844;95191.83;;;;
2020/06/26 01:08:37;;;;;;;11.75;10.65;;;;;;;12.29;85.39844;95191.83;;;;
2020/06/26 01:09:38;;;;;;;11.75;10.65;;;;;;;12.29;85.39844;95191.83;;;;
2020/06/26 01:10:38;;;;;;;11.75;10.65;;;;;;;12.29;85.39844;95191.83;;;;
2020/06/26 01:11:40;;;;;;;11.75;10.65;;;;;;;12.29;85.39844;95191.83;;;;
2020/06/26 01:12:41;;;;;;;11.75;10.65;;;;;;;12.29;85.39844;95191.83;;;;
2020/06/26 01:13:42;;;;;;;11.75;10.65;;;;;;;12.29;85.39844;95191.83;;;;
2020/06/26 01:14:44;;;;;;;11.75;10.65;;;;;;;12.29;85.39844;95191.83;;;;
2020/06/26 01:15:44;;;;;;;11.75;10.65;;;;;;;12.29;85.39844;95191.83;;;;
2020/06/26 01:16:45;;;;;;;13;11.55;;;;;;;12.3;86.11719;95181.31;;;;
2020/06/26 01:17:45;;;;;;;13;11.55;;;;;;;12.3;86.11719;95181.31;;;;
2020/06/26 01:18:47;;;;;;;13;11.55;;;;;;;12.3;86.11719;95181.31;;;;
2020/06/26 01:19:47;;;;;;;13;11.55;;;;;;;12.3;86.11719;95181.31;;;;
2020/06/26 01:20:48;;;;;;;13;11.55;;;;;;;12.3;86.11719;95181.31;;;;
2020/06/26 01:21:51;;;;;;;13;11.55;;;;;;;12.3;86.11719;95181.31;;;;
2020/06/26 01:22:51;;;;;;;13;11.55;;;;;;;12.3;86.11719;95181.31;;;;
2020/06/26 01:23:53;;;;;;;13;11.55;;;;;;;12.3;86.11719;95181.31;;;;
2020/06/26 01:25:02;;;;;;;13;11.55;;;;;;;12.3;86.11719;95181.31;;;;
2020/06/26 01:26:10;;;;;;;13;11.55;;;;;;;12.3;86.11719;95181.31;;;;
2020/06/26 01:27:13;;;;;;;12.2;11.1;;;;;;;12.16;86.66992;95177.17;;;;
2020/06/26 01:28:13;;;;;;;12.2;11.1;;;;;;;12.16;86.66992;95177.17;;;;
2020/06/26 01:29:17;;;;;;;12.2;11.1;;;;;;;12.16;86.66992;95177.17;;;;
2020/06/26 01:30:18;;;;;;;12.2;11.1;;;;;;;12.16;86.66992;95177.17;;;;
2020/06/26 01:31:21;;;;;;;12.2;11.1;;;;;;;12.16;86.66992;95177.17;;;;
2020/06/26 01:32:22;;;;;;;12.2;11.1;;;;;;;12.16;86.66992;95177.17;;;;
2020/06/26 01:33:23;;;;;;;12.2;11.1;;;;;;;12.16;86.66992;95177.17;;;;
2020/06/26 01:34:25;;;;;;;12.2;11.1;;;;;;;12.16;86.66992;95177.17;;;;
2020/06/26 01:35:26;;;;;;;12.2;11.1;;;;;;;12.16;86.66992;95177.17;;;;
2020/06/26 01:36:26;;;;;;;12.2;11.1;;;;;;;12.16;86.66992;95177.17;;;;
2020/06/26 01:37:30;;;;;;;12.5;11.4;;;;;;;12.13;87.22852;95156.55;;;;
2020/06/26 01:38:32;;;;;;;12.5;11.4;;;;;;;12.13;87.22852;95156.55;;;;
2020/06/26 01:39:33;;;;;;;12.5;11.4;;;;;;;12.13;87.22852;95156.55;;;;
2020/06/26 01:40:34;;;;;;;12.5;11.4;;;;;;;12.13;87.22852;95156.55;;;;
2020/06/26 01:41:35;;;;;;;12.5;11.4;;;;;;;12.13;87.22852;95156.55;;;;
2020/06/26 01:42:36;;;;;;;12.5;11.4;;;;;;;12.13;87.22852;95156.55;;;;
2020/06/26 01:43:37;;;;;;;12.5;11.4;;;;;;;12.13;87.22852;95156.55;;;;
2020/06/26 01:44:40;;;;;;;12.5;11.4;;;;;;;12.13;87.22852;95156.55;;;;
2020/06/26 01:45:41;;;;;;;12.5;11.4;;;;;;;12.13;87.22852;95156.55;;;;
2020/06/26 01:46:41;;;;;;;12.5;11.4;;;;;;;12.13;87.22852;95156.55;;;;
2020/06/26 01:47:43;;;;;;;12.5;11.4;;;;;;;12.13;87.22852;95156.55;;;;
2020/06/26 01:48:44;;;;;;;12.8;11.65;;;;;;;12.06;87.88965;95152.67;;;;
2020/06/26 01:49:45;;;;;;;12.8;11.65;;;;;;;12.06;87.88965;95152.67;;;;
2020/06/26 01:50:45;;;;;;;12.8;11.65;;;;;;;12.06;87.88965;95152.67;;;;
2020/06/26 01:51:46;;;;;;;12.8;11.65;;;;;;;12.06;87.88965;95152.67;;;;
2020/06/26 01:52:51;;;;;;;12.8;11.65;;;;;;;12.06;87.88965;95152.67;;;;
2020/06/26 01:53:52;;;;;;;12.8;11.65;;;;;;;12.06;87.88965;95152.67;;;;
2020/06/26 01:54:55;;;;;;;12.8;11.65;;;;;;;12.06;87.88965;95152.67;;;;
2020/06/26 01:55:55;;;;;;;12.8;11.65;;;;;;;12.06;87.88965;95152.67;;;;
2020/06/26 01:56:57;;;;;;;12.8;11.65;;;;;;;12.06;87.88965;95152.67;;;;
2020/06/26 01:57:57;;;;;;;12.8;11.65;;;;;;;12.06;87.88965;95152.67;;;;
2020/06/26 01:58:58;;;;;;;12.8;11.6;;;;;;;12.05;88.30469;95152.37;;;;
2020/06/26 02:00:01;;;;;;;12.8;11.6;;;;;;;12.05;88.30469;95152.37;;;;
2020/06/26 02:01:05;;;;;;;12.8;11.6;;;;;;;12.05;88.30469;95152.37;;;;
2020/06/26 02:02:06;;;;;;;12.8;11.6;;;;;;;12.05;88.30469;95152.37;;;;
2020/06/26 02:03:06;;;;;;;12.8;11.6;;;;;;;12.05;88.30469;95152.37;;;;
2020/06/26 02:04:07;;;;;;;12.8;11.6;;;;;;;12.05;88.30469;95152.37;;;;
2020/06/26 02:05:08;;;;;;;12.8;11.6;;;;;;;12.05;88.30469;95152.37;;;;
2020/06/26 02:06:14;;;;;;;12.8;11.6;;;;;;;12.05;88.30469;95152.37;;;;
2020/06/26 02:07:15;;;;;;;12.8;11.6;;;;;;;12.05;88.30469;95152.37;;;;
2020/06/26 02:08:15;;;;;;;12.8;11.6;;;;;;;12.05;88.30469;95152.37;;;;
2020/06/26 02:09:16;;;;;;;12.8;11.6;;;;;;;12.05;88.30469;95152.37;;;;
2020/06/26 02:10:17;;;;;;;12.7;11.4;;;;;;;11.95;88.59375;95154.11;;;;
2020/06/26 02:11:21;;;;;;;12.7;11.4;;;;;;;11.95;88.59375;95154.11;;;;
2020/06/26 02:12:22;;;;;;;12.7;11.4;;;;;;;11.95;88.59375;95154.11;;;;
2020/06/26 02:13:23;;;;;;;12.7;11.4;;;;;;;11.95;88.59375;95154.11;;;;
2020/06/26 02:14:26;;;;;;;12.7;11.4;;;;;;;11.95;88.59375;95154.11;;;;
2020/06/26 02:15:27;;;;;;;12.7;11.4;;;;;;;11.95;88.59375;95154.11;;;;
2020/06/26 02:16:27;;;;;;;12.7;11.4;;;;;;;11.95;88.59375;95154.11;;;;
2020/06/26 02:17:28;;;;;;;12.7;11.4;;;;;;;11.95;88.59375;95154.11;;;;
2020/06/26 02:18:29;;;;;;;12.7;11.4;;;;;;;11.95;88.59375;95154.11;;;;
2020/06/26 02:19:30;;;;;;;12.7;11.4;;;;;;;11.95;88.59375;95154.11;;;;
2020/06/26 02:20:30;;;;;;;11.55;10.55;;;;;;;11.92;89.00488;95151.39;;;;
2020/06/26 02:21:31;;;;;;;11.55;10.55;;;;;;;11.92;89.00488;95151.39;;;;
2020/06/26 02:22:32;;;;;;;11.55;10.55;;;;;;;11.92;89.00488;95151.39;;;;
2020/06/26 02:23:36;;;;;;;11.55;10.55;;;;;;;11.92;89.00488;95151.39;;;;
2020/06/26 02:24:41;;;;;;;11.55;10.55;;;;;;;11.92;89.00488;95151.39;;;;
2020/06/26 02:25:45;;;;;;;11.55;10.55;;;;;;;11.92;89.00488;95151.39;;;;
2020/06/26 02:26:47;;;;;;;11.55;10.55;;;;;;;11.92;89.00488;95151.39;;;;
2020/06/26 02:27:47;;;;;;;11.55;10.55;;;;;;;11.92;89.00488;95151.39;;;;
2020/06/26 02:28:49;;;;;;;11.55;10.55;;;;;;;11.92;89.00488;95151.39;;;;
2020/06/26 02:29:52;;;;;;;11.55;10.55;;;;;;;11.92;89.00488;95151.39;;;;
2020/06/26 02:30:55;;;;;;;11.85;10.75;;;;;;;11.81;89.32617;95151.35;;;;
2020/06/26 02:31:55;;;;;;;11.85;10.75;;;;;;;11.81;89.32617;95151.35;;;;
2020/06/26 02:32:56;;;;;;;11.85;10.75;;;;;;;11.81;89.32617;95151.35;;;;
2020/06/26 02:33:59;;;;;;;11.85;10.75;;;;;;;11.81;89.32617;95151.35;;;;
2020/06/26 02:35:03;;;;;;;11.85;10.75;;;;;;;11.81;89.32617;95151.35;;;;
2020/06/26 02:36:05;;;;;;;11.85;10.75;;;;;;;11.81;89.32617;95151.35;;;;
2020/06/26 02:37:05;;;;;;;11.85;10.75;;;;;;;11.81;89.32617;95151.35;;;;
2020/06/26 02:38:06;;;;;;;11.85;10.75;;;;;;;11.81;89.32617;95151.35;;;;
2020/06/26 02:39:11;;;;;;;11.85;10.75;;;;;;;11.81;89.32617;95151.35;;;;
2020/06/26 02:40:12;;;;;;;11.85;10.75;;;;;;;11.81;89.32617;95151.35;;;;
2020/06/26 02:41:17;;;;;;;11.35;10.35;;;;;;;11.76;89.62402;95147.75;;;;
2020/06/26 02:42:18;;;;;;;11.35;10.35;;;;;;;11.76;89.62402;95147.75;;;;
2020/06/26 02:43:18;;;;;;;11.35;10.35;;;;;;;11.76;89.62402;95147.75;;;;
2020/06/26 02:44:19;;;;;;;11.35;10.35;;;;;;;11.76;89.62402;95147.75;;;;
2020/06/26 02:45:20;;;;;;;11.35;10.35;;;;;;;11.76;89.62402;95147.75;;;;
2020/06/26 02:46:22;;;;;;;11.35;10.35;;;;;;;11.76;89.62402;95147.75;;;;
2020/06/26 02:47:24;;;;;;;11.35;10.35;;;;;;;11.76;89.62402;95147.75;;;;
2020/06/26 02:48:26;;;;;;;11.35;10.35;;;;;;;11.76;89.62402;95147.75;;;;
2020/06/26 02:49:26;;;;;;;11.35;10.35;;;;;;;11.76;89.62402;95147.75;;;;
2020/06/26 02:50:27;;;;;;;11.35;10.35;;;;;;;11.76;89.62402;95147.75;;;;
2020/06/26 02:51:30;;;;;;;11.35;10.35;;;;;;;11.76;89.62402;95147.75;;;;
2020/06/26 02:52:31;;;;;;;10.45;9.450001;;;;;;;11.66;89.87012;95141.77;;;;
2020/06/26 02:53:32;;;;;;;10.45;9.450001;;;;;;;11.66;89.87012;95141.77;;;;
2020/06/26 02:54:34;;;;;;;10.45;9.450001;;;;;;;11.66;89.87012;95141.77;;;;
2020/06/26 02:55:43;;;;;;;10.45;9.450001;;;;;;;11.66;89.87012;95141.77;;;;
2020/06/26 02:56:43;;;;;;;10.45;9.450001;;;;;;;11.66;89.87012;95141.77;;;;
2020/06/26 02:57:47;;;;;;;10.45;9.450001;;;;;;;11.66;89.87012;95141.77;;;;
2020/06/26 02:58:50;;;;;;;10.45;9.450001;;;;;;;11.66;89.87012;95141.77;;;;
2020/06/26 02:59:53;;;;;;;10.45;9.450001;;;;;;;11.66;89.87012;95141.77;;;;
2020/06/26 03:00:54;;;;;;;10.45;9.450001;;;;;;;11.66;89.87012;95141.77;;;;
2020/06/26 03:01:56;;;;;;;10.45;9.450001;;;;;;;11.66;89.87012;95141.77;;;;
2020/06/26 03:02:57;;;;;;;10.25;9.35;;;;;;;11.64;90.26074;95156.03;;;;
2020/06/26 03:04:01;;;;;;;10.25;9.35;;;;;;;11.64;90.26074;95156.03;;;;
2020/06/26 03:05:06;;;;;;;10.25;9.35;;;;;;;11.64;90.26074;95156.03;;;;
2020/06/26 03:06:08;;;;;;;10.25;9.35;;;;;;;11.64;90.26074;95156.03;;;;
2020/06/26 03:07:09;;;;;;;10.25;9.35;;;;;;;11.64;90.26074;95156.03;;;;
2020/06/26 03:08:13;;;;;;;10.25;9.35;;;;;;;11.64;90.26074;95156.03;;;;
2020/06/26 03:09:18;;;;;;;10.25;9.35;;;;;;;11.64;90.26074;95156.03;;;;
2020/06/26 03:10:19;;;;;;;10.25;9.35;;;;;;;11.64;90.26074;95156.03;;;;
2020/06/26 03:11:20;;;;;;;10.25;9.35;;;;;;;11.64;90.26074;95156.03;;;;
2020/06/26 03:12:23;;;;;;;10.25;9.35;;;;;;;11.64;90.26074;95156.03;;;;
2020/06/26 03:13:25;;;;;;;11.05;10.05;;;;;;;11.61;90.34082;95154.63;;;;
2020/06/26 03:14:28;;;;;;;11.05;10.05;;;;;;;11.61;90.34082;95154.63;;;;
2020/06/26 03:15:29;;;;;;;11.05;10.05;;;;;;;11.61;90.34082;95154.63;;;;
2020/06/26 03:16:30;;;;;;;11.05;10.05;;;;;;;11.61;90.34082;95154.63;;;;
2020/06/26 03:17:34;;;;;;;11.05;10.05;;;;;;;11.61;90.34082;95154.63;;;;
2020/06/26 03:18:36;;;;;;;11.05;10.05;;;;;;;11.61;90.34082;95154.63;;;;
2020/06/26 03:19:38;;;;;;;11.05;10.05;;;;;;;11.61;90.34082;95154.63;;;;
2020/06/26 03:20:42;;;;;;;11.05;10.05;;;;;;;11.61;90.34082;95154.63;;;;
2020/06/26 03:21:48;;;;;;;11.05;10.05;;;;;;;11.61;90.34082;95154.63;;;;
2020/06/26 03:22:52;;;;;;;11.05;10.05;;;;;;;11.61;90.34082;95154.63;;;;
2020/06/26 03:23:54;;;;;;;10.25;9.349998;;;;;;;11.65;90.50879;95142.71;;;;
2020/06/26 03:24:55;;;;;;;10.25;9.349998;;;;;;;11.65;90.50879;95142.71;;;;
2020/06/26 03:25:55;;;;;;;10.25;9.349998;;;;;;;11.65;90.50879;95142.71;;;;
2020/06/26 03:26:56;;;;;;;10.25;9.349998;;;;;;;11.65;90.50879;95142.71;;;;
2020/06/26 03:27:57;;;;;;;10.25;9.349998;;;;;;;11.65;90.50879;95142.71;;;;
2020/06/26 03:29:05;;;;;;;10.25;9.349998;;;;;;;11.65;90.50879;95142.71;;;;
2020/06/26 03:30:14;;;;;;;10.25;9.349998;;;;;;;11.65;90.50879;95142.71;;;;
2020/06/26 03:31:18;;;;;;;10.25;9.349998;;;;;;;11.65;90.50879;95142.71;;;;
2020/06/26 03:32:19;;;;;;;10.25;9.349998;;;;;;;11.65;90.50879;95142.71;;;;
2020/06/26 03:33:22;;;;;;;10.25;9.349998;;;;;;;11.65;90.50879;95142.71;;;;
2020/06/26 03:34:28;;;;;;;11.15;10.15;;;;;;;11.63;90.68652;95145.33;;;;
2020/06/26 03:35:31;;;;;;;11.15;10.15;;;;;;;11.63;90.68652;95145.33;;;;
2020/06/26 03:36:33;;;;;;;11.15;10.15;;;;;;;11.63;90.68652;95145.33;;;;
2020/06/26 03:37:41;;;;;;;11.15;10.15;;;;;;;11.63;90.68652;95145.33;;;;
2020/06/26 03:38:45;;;;;;;11.15;10.15;;;;;;;11.63;90.68652;95145.33;;;;
2020/06/26 03:39:48;;;;;;;11.15;10.15;;;;;;;11.63;90.68652;95145.33;;;;
2020/06/26 03:40:50;;;;;;;11.15;10.15;;;;;;;11.63;90.68652;95145.33;;;;
2020/06/26 03:41:51;;;;;;;11.15;10.15;;;;;;;11.63;90.68652;95145.33;;;;
2020/06/26 03:42:55;;;;;;;11.15;10.15;;;;;;;11.63;90.68652;95145.33;;;;
2020/06/26 03:44:02;;;;;;;11.15;10.15;;;;;;;11.63;90.68652;95145.33;;;;
2020/06/26 03:45:03;;;;;;;11.15;10.15;;;;;;;11.71;90.88477;95135.5;;;;
2020/06/26 03:46:13;;;;;;;11.15;10.15;;;;;;;11.71;90.88477;95135.5;;;;
2020/06/26 03:47:17;;;;;;;11.15;10.15;;;;;;;11.71;90.88477;95135.5;;;;
2020/06/26 03:48:22;;;;;;;11.15;10.15;;;;;;;11.71;90.88477;95135.5;;;;
2020/06/26 03:49:24;;;;;;;11.15;10.15;;;;;;;11.71;90.88477;95135.5;;;;
2020/06/26 03:50:32;;;;;;;11.15;10.15;;;;;;;11.71;90.88477;95135.5;;;;
2020/06/26 03:51:36;;;;;;;11.15;10.15;;;;;;;11.71;90.88477;95135.5;;;;
2020/06/26 03:52:51;;;;;;;11.15;10.15;;;;;;;11.71;90.88477;95135.5;;;;
2020/06/26 03:53:53;;;;;;;11.15;10.15;;;;;;;11.71;90.88477;95135.5;;;;
2020/06/26 03:54:57;;;;;;;11.15;10.15;;;;;;;11.71;90.88477;95135.5;;;;
2020/06/26 03:56:06;;;;;;;11.3;10.25;;;;;;;11.9;90.93457;95139.58;;;;
2020/06/26 03:57:11;;;;;;;11.3;10.25;;;;;;;11.9;90.93457;95139.58;;;;
2020/06/26 03:58:12;;;;;;;11.3;10.25;;;;;;;11.9;90.93457;95139.58;;;;
2020/06/26 03:59:13;;;;;;;11.3;10.25;;;;;;;11.9;90.93457;95139.58;;;;
2020/06/26 04:00:13;;;;;;;11.3;10.25;;;;;;;11.9;90.93457;95139.58;;;;
2020/06/26 04:01:19;;;;;;;11.3;10.25;;;;;;;11.9;90.93457;95139.58;;;;
2020/06/26 04:02:21;;;;;;;11.3;10.25;;;;;;;11.9;90.93457;95139.58;;;;
2020/06/26 04:03:23;;;;;;;11.3;10.25;;;;;;;11.9;90.93457;95139.58;;;;
2020/06/26 04:04:36;;;;;;;11.3;10.25;;;;;;;11.9;90.93457;95139.58;;;;
2020/06/26 04:05:41;;;;;;;11.3;10.25;;;;;;;11.9;90.93457;95139.58;;;;
2020/06/26 04:06:44;;;;;;;11.05;10;;;;;;;12.25;90.85742;95140.08;;;;
2020/06/26 04:07:45;;;;;;;11.05;10;;;;;;;12.25;90.85742;95140.08;;;;
2020/06/26 04:08:48;;;;;;;11.05;10;;;;;;;12.25;90.85742;95140.08;;;;
2020/06/26 04:11:50;;;;;;;11.05;10;;;;;;;12.25;90.85742;95140.08;;;;
2020/06/26 04:12:51;;;;;;;11.05;10;;;;;;;12.25;90.85742;95140.08;;;;
2020/06/26 04:13:56;;;;;;;11.05;10;;;;;;;12.25;90.85742;95140.08;;;;
2020/06/26 04:14:57;;;;;;;11.05;10;;;;;;;12.25;90.85742;95140.08;;;;
2020/06/26 04:15:58;;;;;;;11.05;10;;;;;;;12.25;90.85742;95140.08;;;;
2020/06/26 04:16:58;;;;;;;10.65;9.649999;;;;;;;12.8;90.5332;95143.53;;;;
2020/06/26 04:18:00;;;;;;;10.65;9.649999;;;;;;;12.8;90.5332;95143.53;;;;
2020/06/26 04:19:10;;;;;;;10.65;9.649999;;;;;;;12.8;90.5332;95143.53;;;;
2020/06/26 04:20:18;;;;;;;10.65;9.649999;;;;;;;12.8;90.5332;95143.53;;;;
2020/06/26 04:21:19;;;;;;;10.65;9.649999;;;;;;;12.8;90.5332;95143.53;;;;
2020/06/26 04:22:26;;;;;;;10.65;9.649999;;;;;;;12.8;90.5332;95143.53;;;;
2020/06/26 04:23:34;;;;;;;10.65;9.649999;;;;;;;12.8;90.5332;95143.53;;;;
2020/06/26 04:24:37;;;;;;;10.65;9.649999;;;;;;;12.8;90.5332;95143.53;;;;
2020/06/26 04:25:39;;;;;;;10.65;9.649999;;;;;;;12.8;90.5332;95143.53;;;;
2020/06/26 04:26:47;;;;;;;10.65;9.649999;;;;;;;12.8;90.5332;95143.53;;;;
2020/06/26 04:27:53;;;;;;;9.700002;8.799998;;;;;;;13.39;90.13867;95149.49;;;;
2020/06/26 04:29:01;;;;;;;9.700002;8.799998;;;;;;;13.39;90.13867;95149.49;;;;
2020/06/26 04:30:05;;;;;;;9.700002;8.799998;;;;;;;13.39;90.13867;95149.49;;;;
2020/06/26 04:31:10;;;;;;;9.700002;8.799998;;;;;;;13.39;90.13867;95149.49;;;;
2020/06/26 04:32:14;;;;;;;9.700002;8.799998;;;;;;;13.39;90.13867;95149.49;;;;
2020/06/26 04:33:18;;;;;;;9.700002;8.799998;;;;;;;13.39;90.13867;95149.49;;;;
2020/06/26 04:34:21;;;;;;;9.700002;8.799998;;;;;;;13.39;90.13867;95149.49;;;;
2020/06/26 04:35:25;;;;;;;9.700002;8.799998;;;;;;;13.39;90.13867;95149.49;;;;
2020/06/26 04:36:27;;;;;;;9.700002;8.799998;;;;;;;13.39;90.13867;95149.49;;;;
2020/06/26 04:37:30;;;;;;;9.700002;8.799998;;;;;;;13.39;90.13867;95149.49;;;;
2020/06/26 04:38:38;;;;;;;9.049999;8.299998;;;;;;;13.93;89.80664;95136.66;;;;
2020/06/26 04:39:57;;;;;;;9.049999;8.299998;;;;;;;13.93;89.80664;95136.66;;;;
2020/06/26 04:41:08;;;;;;;9.049999;8.299998;;;;;;;13.93;89.80664;95136.66;;;;
2020/06/26 04:42:13;;;;;;;9.049999;8.299998;;;;;;;13.93;89.80664;95136.66;;;;
2020/06/26 04:43:30;;;;;;;9.049999;8.299998;;;;;;;13.93;89.80664;95136.66;;;;
2020/06/26 04:44:41;;;;;;;9.049999;8.299998;;;;;;;13.93;89.80664;95136.66;;;;
2020/06/26 04:45:59;;;;;;;9.049999;8.299998;;;;;;;13.93;89.80664;95136.66;;;;
2020/06/26 04:47:03;;;;;;;9.049999;8.299998;;;;;;;13.93;89.80664;95136.66;;;;
2020/06/26 04:48:05;;;;;;;9.049999;8.299998;;;;;;;13.93;89.80664;95136.66;;;;
2020/06/26 04:49:10;;;;;;;8.199999;7.5;;;;;;;14.33;89.72852;95139.28;;;;
2020/06/26 04:50:24;;;;;;;8.199999;7.5;;;;;;;14.33;89.72852;95139.28;;;;
2020/06/26 04:51:57;;;;;;;8.199999;7.5;;;;;;;14.33;89.72852;95139.28;;;;
2020/06/26 04:52:58;;;;;;;8.199999;7.5;;;;;;;14.33;89.72852;95139.28;;;;
2020/06/26 04:54:04;;;;;;;8.199999;7.5;;;;;;;14.33;89.72852;95139.28;;;;
2020/06/26 04:55:06;;;;;;;8.199999;7.5;;;;;;;14.33;89.72852;95139.28;;;;
2020/06/26 04:56:10;;;;;;;8.199999;7.5;;;;;;;14.33;89.72852;95139.28;;;;
2020/06/26 04:57:11;;;;;;;8.199999;7.5;;;;;;;14.33;89.72852;95139.28;;;;
2020/06/26 04:58:22;;;;;;;8.199999;7.5;;;;;;;14.33;89.72852;95139.28;;;;
2020/06/26 04:59:53;;;;;;;7.5;6.9;;;;;;;14.7;89.56641;95141.37;;;;
2020/06/26 05:01:05;;;;;;;7.5;6.9;;;;;;;14.7;89.56641;95141.37;;;;
2020/06/26 05:02:08;;;;;;;7.5;6.9;;;;;;;14.7;89.56641;95141.37;;;;
2020/06/26 05:03:11;;;;;;;7.5;6.9;;;;;;;14.7;89.56641;95141.37;;;;
2020/06/26 05:04:19;;;;;;;7.5;6.9;;;;;;;14.7;89.56641;95141.37;;;;
2020/06/26 05:05:40;;;;;;;7.5;6.9;;;;;;;14.7;89.56641;95141.37;;;;
2020/06/26 05:06:40;;;;;;;7.5;6.9;;;;;;;14.7;89.56641;95141.37;;;;
2020/06/26 05:07:43;;;;;;;7.5;6.9;;;;;;;14.7;89.56641;95141.37;;;;
2020/06/26 05:08:49;;;;;;;7.5;6.9;;;;;;;14.7;89.56641;95141.37;;;;
2020/06/26 05:09:54;;;;;;;7.4;6.75;;;;;;;14.97;89.39746;95133.34;;;;
2020/06/26 05:10:55;;;;;;;7.4;6.75;;;;;;;14.97;89.39746;95133.34;;;;
2020/06/26 05:12:00;;;;;;;7.4;6.75;;;;;;;14.97;89.39746;95133.34;;;;
2020/06/26 05:13:02;;;;;;;7.4;6.75;;;;;;;14.97;89.39746;95133.34;;;;
2020/06/26 05:14:07;;;;;;;7.4;6.75;;;;;;;14.97;89.39746;95133.34;;;;
2020/06/26 05:15:08;;;;;;;7.4;6.75;;;;;;;14.97;89.39746;95133.34;;;;
2020/06/26 05:16:10;;;;;;;7.4;6.75;;;;;;;14.97;89.39746;95133.34;;;;
2020/06/26 05:17:11;;;;;;;7.4;6.75;;;;;;;14.97;89.39746;95133.34;;;;
2020/06/26 05:18:16;;;;;;;7.4;6.75;;;;;;;14.97;89.39746;95133.34;;;;
2020/06/26 05:19:17;;;;;;;7.4;6.75;;;;;;;14.97;89.39746;95133.34;;;;
2020/06/26 05:20:19;;;;;;;7.4;6.75;;;;;;;14.97;89.39746;95133.34;;;;
2020/06/26 05:21:21;;;;;;;7.100001;6.5;;;;;;;15.05;89.40234;95128.34;;;;
2020/06/26 05:22:23;;;;;;;7.100001;6.5;;;;;;;15.05;89.40234;95128.34;;;;
2020/06/26 05:23:26;;;;;;;7.100001;6.5;;;;;;;15.05;89.40234;95128.34;;;;
2020/06/26 05:24:28;;;;;;;7.100001;6.5;;;;;;;15.05;89.40234;95128.34;;;;
2020/06/26 05:25:29;;;;;;;7.100001;6.5;;;;;;;15.05;89.40234;95128.34;;;;
2020/06/26 05:26:31;;;;;;;7.100001;6.5;;;;;;;15.05;89.40234;95128.34;;;;
2020/06/26 05:27:33;;;;;;;7.100001;6.5;;;;;;;15.05;89.40234;95128.34;;;;
2020/06/26 05:28:34;;;;;;;7.100001;6.5;;;;;;;15.05;89.40234;95128.34;;;;
2020/06/26 05:29:38;;;;;;;7.100001;6.5;;;;;;;15.05;89.40234;95128.34;;;;
2020/06/26 05:30:43;;;;;;;7.100001;6.5;;;;;;;15.05;89.40234;95128.34;;;;
2020/06/26 05:31:45;;;;;;;7.9;7.25;;;;;;;15.15;89.62793;95116.53;;;;
2020/06/26 05:32:53;;;;;;;7.9;7.25;;;;;;;15.15;89.62793;95116.53;;;;
2020/06/26 05:34:17;;;;;;;7.9;7.25;;;;;;;15.15;89.62793;95116.53;;;;
2020/06/26 05:35:24;;;;;;;7.9;7.25;;;;;;;15.15;89.62793;95116.53;;;;
2020/06/26 05:36:27;;;;;;;7.9;7.25;;;;;;;15.15;89.62793;95116.53;;;;
2020/06/26 05:37:30;;;;;;;7.9;7.25;;;;;;;15.15;89.62793;95116.53;;;;
2020/06/26 05:38:40;;;;;;;7.9;7.25;;;;;;;15.15;89.62793;95116.53;;;;
2020/06/26 05:40:03;;;;;;;7.9;7.25;;;;;;;15.15;89.62793;95116.53;;;;
2020/06/26 05:41:09;;;;;;;7.9;7.25;;;;;;;15.15;89.62793;95116.53;;;;
2020/06/26 05:42:13;;;;;;;6.800001;6.1;;;;;;;15.37;89.31641;95124.48;;;;
2020/06/26 05:43:15;;;;;;;6.800001;6.1;;;;;;;15.37;89.31641;95124.48;;;;
2020/06/26 05:44:17;;;;;;;6.800001;6.1;;;;;;;15.37;89.31641;95124.48;;;;
2020/06/26 05:45:23;;;;;;;6.800001;6.1;;;;;;;15.37;89.31641;95124.48;;;;
2020/06/26 05:46:25;;;;;;;6.800001;6.1;;;;;;;15.37;89.31641;95124.48;;;;
2020/06/26 05:47:29;;;;;;;6.800001;6.1;;;;;;;15.37;89.31641;95124.48;;;;
2020/06/26 05:48:34;;;;;;;6.800001;6.1;;;;;;;15.37;89.31641;95124.48;;;;
2020/06/26 05:49:37;;;;;;;6.800001;6.1;;;;;;;15.37;89.31641;95124.48;;;;
2020/06/26 05:51:01;;;;;;;6.800001;6.1;;;;;;;15.37;89.31641;95124.48;;;;